Manchester, New Hampshire
Current Conditions -  °F | °C
As of 7:53 AM on Thursday 27 Nov 2014 (Local Time) from KMHT Reporting Station
Broken Clouds Broken Clouds  
Wind Chill: 25°   Ceiling: 8500
Heat Index: 31°   Visibility: 10mi
Dew Point: 27°   Wind: 6mph
Humidity: 85%   Direction: 330°NNW
Pressure: 29.87"   Gusts: NA
Location:  42.99°N, 71.46°W
Report Text: KMHT 271253Z 33005KT 10SM BKN085 M01/M03 A2987 RMK AO2 SLP132 T10061028 $
Loading
Personal Weather Stations






























Interactive Weather Map New forecast layout! Learn more

10-Day Weather Forecast

Advertisements
Track Severe Weather on mobile